sensor_id;sensor_type;location;lat;lon;timestamp;temperature;humidity
1878;DHT22;939;51.426;6.972;2023-02-28T00:01:08;3.70;99.90
1878;DHT22;939;51.426;6.972;2023-02-28T00:03:35;3.70;99.90
1878;DHT22;939;51.426;6.972;2023-02-28T00:06:03;3.70;99.90
1878;DHT22;939;51.426;6.972;2023-02-28T00:08:36;3.70;99.90
1878;DHT22;939;51.426;6.972;2023-02-28T00:11:04;3.70;99.90
1878;DHT22;939;51.426;6.972;2023-02-28T00:13:33;3.70;99.90
1878;DHT22;939;51.426;6.972;2023-02-28T00:16:01;3.70;99.90
1878;DHT22;939;51.426;6.972;2023-02-28T00:18:28;3.60;99.90
1878;DHT22;939;51.426;6.972;2023-02-28T00:20:55;3.60;99.90
1878;DHT22;939;51.426;6.972;2023-02-28T00:23:22;3.70;99.90
1878;DHT22;939;51.426;6.972;2023-02-28T00:25:50;3.70;99.90
1878;DHT22;939;51.426;6.972;2023-02-28T00:28:17;3.70;99.90
1878;DHT22;939;51.426;6.972;2023-02-28T00:30:45;3.60;99.90
1878;DHT22;939;51.426;6.972;2023-02-28T00:33:12;3.50;99.90
1878;DHT22;939;51.426;6.972;2023-02-28T00:35:39;3.60;99.90
1878;DHT22;939;51.426;6.972;2023-02-28T00:38:06;3.50;99.90
1878;DHT22;939;51.426;6.972;2023-02-28T00:40:33;3.60;99.90
1878;DHT22;939;51.426;6.972;2023-02-28T00:43:03;3.50;99.90
1878;DHT22;939;51.426;6.972;2023-02-28T00:45:30;3.50;99.90
1878;DHT22;939;51.426;6.972;2023-02-28T00:47:59;3.50;99.90
1878;DHT22;939;51.426;6.972;2023-02-28T00:50:26;3.50;99.90
1878;DHT22;939;51.426;6.972;2023-02-28T00:52:53;3.40;99.90
1878;DHT22;939;51.426;6.972;2023-02-28T00:55:19;3.40;99.90
1878;DHT22;939;51.426;6.972;2023-02-28T00:57:46;3.40;99.90
1878;DHT22;939;51.426;6.972;2023-02-28T01:00:15;3.40;99.90
1878;DHT22;939;51.426;6.972;2023-02-28T01:02:42;3.40;99.90
1878;DHT22;939;51.426;6.972;2023-02-28T01:05:10;3.40;99.90
1878;DHT22;939;51.426;6.972;2023-02-28T01:07:39;3.40;99.90
1878;DHT22;939;51.426;6.972;2023-02-28T01:10:18;3.30;99.90
1878;DHT22;939;51.426;6.972;2023-02-28T01:12:46;3.30;99.90
1878;DHT22;939;51.426;6.972;2023-02-28T01:15:14;3.30;99.90
1878;DHT22;939;51.426;6.972;2023-02-28T01:17:41;3.30;99.90
1878;DHT22;939;51.426;6.972;2023-02-28T01:20:09;3.20;99.90
1878;DHT22;939;51.426;6.972;2023-02-28T01:22:37;3.20;99.90
1878;DHT22;939;51.426;6.972;2023-02-28T01:25:05;3.20;99.90
1878;DHT22;939;51.426;6.972;2023-02-28T01:27:33;3.20;99.90
1878;DHT22;939;51.426;6.972;2023-02-28T01:30:00;3.20;99.90
1878;DHT22;939;51.426;6.972;2023-02-28T01:32:28;3.20;99.90
1878;DHT22;939;51.426;6.972;2023-02-28T01:34:55;3.20;99.90
1878;DHT22;939;51.426;6.972;2023-02-28T01:37:22;3.20;99.90
1878;DHT22;939;51.426;6.972;2023-02-28T01:39:49;3.20;99.90
1878;DHT22;939;51.426;6.972;2023-02-28T01:42:16;3.20;99.90
1878;DHT22;939;51.426;6.972;2023-02-28T01:44:58;3.10;99.90
1878;DHT22;939;51.426;6.972;2023-02-28T01:47:30;3.00;99.90
1878;DHT22;939;51.426;6.972;2023-02-28T01:50:01;3.00;99.90
1878;DHT22;939;51.426;6.972;2023-02-28T01:52:31;2.90;99.90
1878;DHT22;939;51.426;6.972;2023-02-28T01:55:00;2.90;99.90
1878;DHT22;939;51.426;6.972;2023-02-28T01:57:30;2.90;99.90
1878;DHT22;939;51.426;6.972;2023-02-28T02:00:05;2.80;99.90
1878;DHT22;939;51.426;6.972;2023-02-28T02:02:36;2.80;99.90
1878;DHT22;939;51.426;6.972;2023-02-28T02:05:06;2.80;99.90
1878;DHT22;939;51.426;6.972;2023-02-28T02:07:36;2.70;99.90
1878;DHT22;939;51.426;6.972;2023-02-28T02:10:10;2.70;99.90
1878;DHT22;939;51.426;6.972;2023-02-28T02:13:00;2.60;99.90
1878;DHT22;939;51.426;6.972;2023-02-28T02:15:32;2.70;99.90
1878;DHT22;939;51.426;6.972;2023-02-28T02:18:13;2.60;99.90
1878;DHT22;939;51.426;6.972;2023-02-28T02:27:08;2.50;99.90
1878;DHT22;939;51.426;6.972;2023-02-28T02:29:52;2.40;99.90
1878;DHT22;939;51.426;6.972;2023-02-28T02:35:27;2.40;99.90
1878;DHT22;939;51.426;6.972;2023-02-28T02:38:02;2.30;99.90
1878;DHT22;939;51.426;6.972;2023-02-28T02:40:37;2.30;99.90
1878;DHT22;939;51.426;6.972;2023-02-28T02:43:07;2.30;99.90
1878;DHT22;939;51.426;6.972;2023-02-28T02:45:41;2.20;99.90
1878;DHT22;939;51.426;6.972;2023-02-28T02:48:15;2.20;99.90
1878;DHT22;939;51.426;6.972;2023-02-28T02:50:46;2.20;99.90
1878;DHT22;939;51.426;6.972;2023-02-28T02:53:16;2.30;99.90
1878;DHT22;939;51.426;6.972;2023-02-28T02:55:47;2.10;99.90
1878;DHT22;939;51.426;6.972;2023-02-28T02:58:19;2.10;99.90
1878;DHT22;939;51.426;6.972;2023-02-28T03:00:50;2.20;99.90
1878;DHT22;939;51.426;6.972;2023-02-28T03:03:20;2.10;99.90
1878;DHT22;939;51.426;6.972;2023-02-28T03:05:56;2.10;99.90
1878;DHT22;939;51.426;6.972;2023-02-28T03:08:23;2.10;99.90
1878;DHT22;939;51.426;6.972;2023-02-28T03:10:51;2.00;99.90
1878;DHT22;939;51.426;6.972;2023-02-28T03:13:46;2.00;99.90
1878;DHT22;939;51.426;6.972;2023-02-28T03:16:27;2.00;99.90
1878;DHT22;939;51.426;6.972;2023-02-28T03:19:02;2.00;99.90
1878;DHT22;939;51.426;6.972;2023-02-28T03:21:37;1.90;99.90
1878;DHT22;939;51.426;6.972;2023-02-28T03:24:08;1.90;99.90
1878;DHT22;939;51.426;6.972;2023-02-28T03:26:39;1.60;99.90
1878;DHT22;939;51.426;6.972;2023-02-28T03:29:15;1.80;99.90
1878;DHT22;939;51.426;6.972;2023-02-28T03:31:47;1.90;99.90
1878;DHT22;939;51.426;6.972;2023-02-28T03:34:19;1.90;99.90
1878;DHT22;939;51.426;6.972;2023-02-28T03:36:53;1.90;99.90
1878;DHT22;939;51.426;6.972;2023-02-28T03:39:23;1.80;99.90
1878;DHT22;939;51.426;6.972;2023-02-28T03:41:56;1.70;99.90
1878;DHT22;939;51.426;6.972;2023-02-28T03:44:28;1.80;99.90
1878;DHT22;939;51.426;6.972;2023-02-28T03:47:01;1.80;99.90
1878;DHT22;939;51.426;6.972;2023-02-28T03:49:32;1.70;99.90
1878;DHT22;939;51.426;6.972;2023-02-28T03:52:04;1.80;99.90
1878;DHT22;939;51.426;6.972;2023-02-28T03:54:36;1.80;99.90
1878;DHT22;939;51.426;6.972;2023-02-28T03:57:07;1.80;99.90
1878;DHT22;939;51.426;6.972;2023-02-28T03:59:39;1.80;99.90
1878;DHT22;939;51.426;6.972;2023-02-28T04:02:08;1.80;99.90
1878;DHT22;939;51.426;6.972;2023-02-28T04:04:35;1.80;99.90
1878;DHT22;939;51.426;6.972;2023-02-28T04:07:08;1.80;99.90
1878;DHT22;939;51.426;6.972;2023-02-28T04:09:35;1.80;99.90
1878;DHT22;939;51.426;6.972;2023-02-28T04:12:02;1.80;99.90
1878;DHT22;939;51.426;6.972;2023-02-28T04:14:29;1.80;99.90
1878;DHT22;939;51.426;6.972;2023-02-28T04:16:56;1.80;99.90
1878;DHT22;939;51.426;6.972;2023-02-28T04:19:22;1.80;99.90
1878;DHT22;939;51.426;6.972;2023-02-28T04:21:51;1.80;99.90
1878;DHT22;939;51.426;6.972;2023-02-28T04:24:21;1.90;99.90
1878;DHT22;939;51.426;6.972;2023-02-28T04:26:49;1.80;99.90
1878;DHT22;939;51.426;6.972;2023-02-28T04:29:19;1.80;99.90
1878;DHT22;939;51.426;6.972;2023-02-28T04:31:46;1.80;99.90
1878;DHT22;939;51.426;6.972;2023-02-28T04:34:13;1.80;99.90
1878;DHT22;939;51.426;6.972;2023-02-28T04:36:40;1.80;99.90
1878;DHT22;939;51.426;6.972;2023-02-28T04:39:07;1.80;99.90
1878;DHT22;939;51.426;6.972;2023-02-28T04:41:36;1.80;99.90
1878;DHT22;939;51.426;6.972;2023-02-28T04:44:03;1.80;99.90
1878;DHT22;939;51.426;6.972;2023-02-28T04:46:30;1.80;99.90
1878;DHT22;939;51.426;6.972;2023-02-28T04:48:57;1.90;99.90
1878;DHT22;939;51.426;6.972;2023-02-28T04:51:24;1.80;99.90
1878;DHT22;939;51.426;6.972;2023-02-28T04:53:52;1.80;99.90
1878;DHT22;939;51.426;6.972;2023-02-28T04:56:19;1.80;99.90
1878;DHT22;939;51.426;6.972;2023-02-28T04:58:48;1.80;99.90
1878;DHT22;939;51.426;6.972;2023-02-28T05:01:19;1.70;99.90
1878;DHT22;939;51.426;6.972;2023-02-28T05:03:46;1.70;99.90
1878;DHT22;939;51.426;6.972;2023-02-28T05:06:14;1.70;99.90
1878;DHT22;939;51.426;6.972;2023-02-28T05:08:41;1.70;99.90
1878;DHT22;939;51.426;6.972;2023-02-28T05:11:17;1.60;99.90
1878;DHT22;939;51.426;6.972;2023-02-28T05:13:44;1.60;99.90
1878;DHT22;939;51.426;6.972;2023-02-28T05:16:13;1.60;99.90
1878;DHT22;939;51.426;6.972;2023-02-28T05:18:40;1.50;99.90
1878;DHT22;939;51.426;6.972;2023-02-28T05:21:23;1.60;99.90
1878;DHT22;939;51.426;6.972;2023-02-28T05:23:53;1.60;99.90
1878;DHT22;939;51.426;6.972;2023-02-28T05:26:24;1.70;99.90
1878;DHT22;939;51.426;6.972;2023-02-28T05:28:51;1.60;99.90
1878;DHT22;939;51.426;6.972;2023-02-28T05:31:19;1.60;99.90
1878;DHT22;939;51.426;6.972;2023-02-28T05:33:46;1.60;99.90
1878;DHT22;939;51.426;6.972;2023-02-28T05:36:13;1.60;99.90
1878;DHT22;939;51.426;6.972;2023-02-28T05:38:40;1.60;99.90
1878;DHT22;939;51.426;6.972;2023-02-28T05:41:08;1.50;99.90
1878;DHT22;939;51.426;6.972;2023-02-28T05:43:35;1.50;99.90
1878;DHT22;939;51.426;6.972;2023-02-28T05:46:04;1.40;99.90
1878;DHT22;939;51.426;6.972;2023-02-28T05:48:34;1.40;99.90
1878;DHT22;939;51.426;6.972;2023-02-28T05:51:02;1.40;99.90
1878;DHT22;939;51.426;6.972;2023-02-28T05:53:29;1.40;99.90
1878;DHT22;939;51.426;6.972;2023-02-28T05:55:57;1.50;99.90
1878;DHT22;939;51.426;6.972;2023-02-28T05:58:24;1.40;99.90
1878;DHT22;939;51.426;6.972;2023-02-28T06:00:54;1.40;99.90
1878;DHT22;939;51.426;6.972;2023-02-28T06:03:21;1.40;99.90
1878;DHT22;939;51.426;6.972;2023-02-28T06:05:49;1.30;99.90
1878;DHT22;939;51.426;6.972;2023-02-28T06:08:17;1.30;99.90
1878;DHT22;939;51.426;6.972;2023-02-28T06:10:43;1.40;99.90
1878;DHT22;939;51.426;6.972;2023-02-28T06:13:10;1.30;99.90
1878;DHT22;939;51.426;6.972;2023-02-28T06:15:38;1.30;99.90
1878;DHT22;939;51.426;6.972;2023-02-28T06:18:05;1.30;99.90
1878;DHT22;939;51.426;6.972;2023-02-28T06:20:32;1.30;99.90
1878;DHT22;939;51.426;6.972;2023-02-28T06:23:00;1.20;99.90
1878;DHT22;939;51.426;6.972;2023-02-28T06:25:28;1.20;99.90
1878;DHT22;939;51.426;6.972;2023-02-28T06:27:55;1.20;99.90
1878;DHT22;939;51.426;6.972;2023-02-28T06:30:22;1.20;99.90
1878;DHT22;939;51.426;6.972;2023-02-28T06:32:52;1.20;99.90
1878;DHT22;939;51.426;6.972;2023-02-28T06:35:19;1.20;99.90
1878;DHT22;939;51.426;6.972;2023-02-28T06:37:49;1.20;99.90
1878;DHT22;939;51.426;6.972;2023-02-28T06:40:17;1.20;99.90
1878;DHT22;939;51.426;6.972;2023-02-28T06:42:44;1.30;99.90
1878;DHT22;939;51.426;6.972;2023-02-28T06:45:11;1.30;99.90
1878;DHT22;939;51.426;6.972;2023-02-28T06:47:39;1.30;99.90
1878;DHT22;939;51.426;6.972;2023-02-28T06:50:08;1.20;99.90
1878;DHT22;939;51.426;6.972;2023-02-28T06:52:51;1.20;99.90
1878;DHT22;939;51.426;6.972;2023-02-28T06:55:28;1.20;99.90
1878;DHT22;939;51.426;6.972;2023-02-28T06:57:55;1.20;99.90
1878;DHT22;939;51.426;6.972;2023-02-28T07:00:42;1.20;99.90
1878;DHT22;939;51.426;6.972;2023-02-28T07:03:09;1.30;99.90
1878;DHT22;939;51.426;6.972;2023-02-28T07:05:45;1.30;99.90
1878;DHT22;939;51.426;6.972;2023-02-28T07:08:12;1.30;99.90
1878;DHT22;939;51.426;6.972;2023-02-28T07:10:41;1.30;99.90
1878;DHT22;939;51.426;6.972;2023-02-28T07:13:17;1.30;99.90
1878;DHT22;939;51.426;6.972;2023-02-28T07:15:53;1.30;99.90
1878;DHT22;939;51.426;6.972;2023-02-28T07:18:23;1.30;99.90
1878;DHT22;939;51.426;6.972;2023-02-28T07:20:52;1.40;99.90
1878;DHT22;939;51.426;6.972;2023-02-28T07:23:21;1.40;99.90
1878;DHT22;939;51.426;6.972;2023-02-28T07:25:49;1.40;99.90
1878;DHT22;939;51.426;6.972;2023-02-28T07:28:17;1.50;99.90
1878;DHT22;939;51.426;6.972;2023-02-28T07:30:44;1.50;99.90
1878;DHT22;939;51.426;6.972;2023-02-28T07:33:26;1.50;99.90
1878;DHT22;939;51.426;6.972;2023-02-28T07:36:00;1.60;99.90
1878;DHT22;939;51.426;6.972;2023-02-28T07:38:29;1.60;99.90
1878;DHT22;939;51.426;6.972;2023-02-28T07:41:11;1.70;99.90
1878;DHT22;939;51.426;6.972;2023-02-28T07:43:38;1.80;99.90
1878;DHT22;939;51.426;6.972;2023-02-28T07:46:06;1.80;99.90
1878;DHT22;939;51.426;6.972;2023-02-28T07:48:45;1.90;99.90
1878;DHT22;939;51.426;6.972;2023-02-28T07:51:13;1.90;99.90
1878;DHT22;939;51.426;6.972;2023-02-28T07:53:49;1.90;99.90
1878;DHT22;939;51.426;6.972;2023-02-28T07:56:24;2.00;99.90
1878;DHT22;939;51.426;6.972;2023-02-28T07:58:51;2.00;99.90
1878;DHT22;939;51.426;6.972;2023-02-28T08:01:18;2.00;99.90
1878;DHT22;939;51.426;6.972;2023-02-28T08:06:55;2.10;99.90
1878;DHT22;939;51.426;6.972;2023-02-28T08:09:24;2.20;99.90
1878;DHT22;939;51.426;6.972;2023-02-28T08:11:56;2.30;99.90
1878;DHT22;939;51.426;6.972;2023-02-28T08:14:30;2.30;99.90
1878;DHT22;939;51.426;6.972;2023-02-28T08:17:00;2.30;99.90
1878;DHT22;939;51.426;6.972;2023-02-28T08:19:51;2.40;99.90
1878;DHT22;939;51.426;6.972;2023-02-28T08:22:18;2.50;99.90
1878;DHT22;939;51.426;6.972;2023-02-28T08:24:47;2.60;99.90
1878;DHT22;939;51.426;6.972;2023-02-28T08:27:16;2.60;99.90
1878;DHT22;939;51.426;6.972;2023-02-28T08:29:48;2.80;99.90
1878;DHT22;939;51.426;6.972;2023-02-28T08:32:15;2.90;99.90
1878;DHT22;939;51.426;6.972;2023-02-28T08:34:45;3.00;99.90
1878;DHT22;939;51.426;6.972;2023-02-28T08:37:14;3.10;99.90
1878;DHT22;939;51.426;6.972;2023-02-28T08:39:51;3.20;99.90
1878;DHT22;939;51.426;6.972;2023-02-28T08:42:26;3.20;99.90
1878;DHT22;939;51.426;6.972;2023-02-28T08:44:56;3.30;99.90
1878;DHT22;939;51.426;6.972;2023-02-28T08:47:23;3.30;99.90
1878;DHT22;939;51.426;6.972;2023-02-28T08:49:55;3.40;99.90
1878;DHT22;939;51.426;6.972;2023-02-28T08:52:23;3.40;99.60
1878;DHT22;939;51.426;6.972;2023-02-28T08:54:50;3.40;98.00
1878;DHT22;939;51.426;6.972;2023-02-28T08:57:21;3.60;97.30
1878;DHT22;939;51.426;6.972;2023-02-28T08:59:48;3.70;96.40
1878;DHT22;939;51.426;6.972;2023-02-28T09:02:20;3.90;96.00
1878;DHT22;939;51.426;6.972;2023-02-28T09:04:48;4.10;95.70
1878;DHT22;939;51.426;6.972;2023-02-28T09:07:15;4.20;94.60
1878;DHT22;939;51.426;6.972;2023-02-28T09:09:42;4.30;93.30
1878;DHT22;939;51.426;6.972;2023-02-28T09:12:20;4.40;92.80
1878;DHT22;939;51.426;6.972;2023-02-28T09:14:47;4.50;92.50
1878;DHT22;939;51.426;6.972;2023-02-28T09:17:17;4.60;91.30
1878;DHT22;939;51.426;6.972;2023-02-28T09:19:47;4.60;90.90
1878;DHT22;939;51.426;6.972;2023-02-28T09:22:14;4.60;90.30
1878;DHT22;939;51.426;6.972;2023-02-28T09:24:43;4.70;91.80
1878;DHT22;939;51.426;6.972;2023-02-28T09:27:10;4.80;90.60
1878;DHT22;939;51.426;6.972;2023-02-28T09:29:40;4.80;91.90
1878;DHT22;939;51.426;6.972;2023-02-28T09:32:07;4.90;92.10
1878;DHT22;939;51.426;6.972;2023-02-28T09:34:34;5.10;91.80
1878;DHT22;939;51.426;6.972;2023-02-28T09:37:02;5.20;91.60
1878;DHT22;939;51.426;6.972;2023-02-28T09:39:29;5.10;89.50
1878;DHT22;939;51.426;6.972;2023-02-28T09:41:57;5.80;90.60
1878;DHT22;939;51.426;6.972;2023-02-28T09:44:28;7.90;85.50
1878;DHT22;939;51.426;6.972;2023-02-28T09:47:01;9.90;69.20
1878;DHT22;939;51.426;6.972;2023-02-28T09:49:36;12.40;56.80
1878;DHT22;939;51.426;6.972;2023-02-28T09:52:05;14.10;39.30
1878;DHT22;939;51.426;6.972;2023-02-28T09:54:36;15.30;27.80
1878;DHT22;939;51.426;6.972;2023-02-28T09:57:08;15.90;22.90
1878;DHT22;939;51.426;6.972;2023-02-28T09:59:58;16.40;21.80
1878;DHT22;939;51.426;6.972;2023-02-28T10:02:46;16.60;18.50
1878;DHT22;939;51.426;6.972;2023-02-28T10:05:17;16.70;16.70
1878;DHT22;939;51.426;6.972;2023-02-28T10:08:03;15.70;17.00
1878;DHT22;939;51.426;6.972;2023-02-28T10:10:39;14.80;16.20
1878;DHT22;939;51.426;6.972;2023-02-28T10:13:13;13.50;16.10
1878;DHT22;939;51.426;6.972;2023-02-28T10:15:50;12.60;16.40
1878;DHT22;939;51.426;6.972;2023-02-28T10:18:22;10.40;19.20
1878;DHT22;939;51.426;6.972;2023-02-28T10:20:51;9.60;21.60
1878;DHT22;939;51.426;6.972;2023-02-28T10:23:23;9.20;22.80
1878;DHT22;939;51.426;6.972;2023-02-28T10:25:55;8.80;24.00
1878;DHT22;939;51.426;6.972;2023-02-28T10:28:25;8.00;24.00
1878;DHT22;939;51.426;6.972;2023-02-28T10:30:59;7.20;26.00
1878;DHT22;939;51.426;6.972;2023-02-28T10:33:31;7.10;29.80
1878;DHT22;939;51.426;6.972;2023-02-28T10:36:00;6.50;28.60
1878;DHT22;939;51.426;6.972;2023-02-28T10:38:31;6.40;30.90
1878;DHT22;939;51.426;6.972;2023-02-28T10:41:07;6.40;29.70
1878;DHT22;939;51.426;6.972;2023-02-28T10:43:36;6.50;32.80
1878;DHT22;939;51.426;6.972;2023-02-28T10:46:12;6.10;33.00
1878;DHT22;939;51.426;6.972;2023-02-28T10:48:44;6.10;35.40
1878;DHT22;939;51.426;6.972;2023-02-28T10:51:14;6.30;35.70
1878;DHT22;939;51.426;6.972;2023-02-28T10:53:49;6.50;35.10
1878;DHT22;939;51.426;6.972;2023-02-28T10:56:20;6.70;34.00
1878;DHT22;939;51.426;6.972;2023-02-28T10:58:53;6.80;32.50
1878;DHT22;939;51.426;6.972;2023-02-28T11:01:22;6.70;31.30
1878;DHT22;939;51.426;6.972;2023-02-28T11:03:52;6.80;33.60
1878;DHT22;939;51.426;6.972;2023-02-28T11:06:20;6.30;32.10
1878;DHT22;939;51.426;6.972;2023-02-28T11:08:50;6.30;35.60
1878;DHT22;939;51.426;6.972;2023-02-28T11:11:22;6.40;32.00
1878;DHT22;939;51.426;6.972;2023-02-28T11:13:52;6.50;33.50
1878;DHT22;939;51.426;6.972;2023-02-28T11:16:20;6.60;31.90
1878;DHT22;939;51.426;6.972;2023-02-28T11:18:54;6.60;32.50
1878;DHT22;939;51.426;6.972;2023-02-28T11:21:25;6.50;31.60
1878;DHT22;939;51.426;6.972;2023-02-28T11:24:00;6.20;32.80
1878;DHT22;939;51.426;6.972;2023-02-28T11:26:40;6.20;33.70
1878;DHT22;939;51.426;6.972;2023-02-28T11:29:20;6.10;32.60
1878;DHT22;939;51.426;6.972;2023-02-28T11:32:04;5.80;32.90
1878;DHT22;939;51.426;6.972;2023-02-28T11:34:32;5.90;35.00
1878;DHT22;939;51.426;6.972;2023-02-28T11:37:00;5.60;33.60
1878;DHT22;939;51.426;6.972;2023-02-28T11:39:31;5.70;36.50
1878;DHT22;939;51.426;6.972;2023-02-28T11:42:09;5.80;37.50
1878;DHT22;939;51.426;6.972;2023-02-28T11:44:48;5.70;34.40
1878;DHT22;939;51.426;6.972;2023-02-28T11:47:32;5.50;35.80
1878;DHT22;939;51.426;6.972;2023-02-28T11:50:16;5.50;36.90
1878;DHT22;939;51.426;6.972;2023-02-28T11:52:50;5.70;38.70
1878;DHT22;939;51.426;6.972;2023-02-28T11:55:23;6.00;37.20
1878;DHT22;939;51.426;6.972;2023-02-28T11:58:14;6.20;35.70
1878;DHT22;939;51.426;6.972;2023-02-28T12:01:09;6.40;35.70
1878;DHT22;939;51.426;6.972;2023-02-28T12:03:47;6.50;34.60
1878;DHT22;939;51.426;6.972;2023-02-28T12:06:25;6.50;36.30
1878;DHT22;939;51.426;6.972;2023-02-28T12:09:02;6.20;34.70
1878;DHT22;939;51.426;6.972;2023-02-28T12:11:38;6.20;34.80
1878;DHT22;939;51.426;6.972;2023-02-28T12:14:27;5.90;35.00
1878;DHT22;939;51.426;6.972;2023-02-28T12:17:03;6.00;37.90
1878;DHT22;939;51.426;6.972;2023-02-28T12:19:44;6.10;35.50
1878;DHT22;939;51.426;6.972;2023-02-28T12:22:31;6.10;36.80
1878;DHT22;939;51.426;6.972;2023-02-28T12:25:39;6.10;37.00
1878;DHT22;939;51.426;6.972;2023-02-28T12:28:12;6.00;37.50
1878;DHT22;939;51.426;6.972;2023-02-28T12:30:46;5.90;37.10
1878;DHT22;939;51.426;6.972;2023-02-28T12:33:18;5.80;38.90
1878;DHT22;939;51.426;6.972;2023-02-28T12:35:51;5.80;38.50
1878;DHT22;939;51.426;6.972;2023-02-28T12:38:24;5.50;37.30
1878;DHT22;939;51.426;6.972;2023-02-28T12:40:56;5.60;38.80
1878;DHT22;939;51.426;6.972;2023-02-28T12:43:29;5.90;38.20
1878;DHT22;939;51.426;6.972;2023-02-28T12:46:00;6.20;40.80
1878;DHT22;939;51.426;6.972;2023-02-28T12:48:33;6.30;38.10
1878;DHT22;939;51.426;6.972;2023-02-28T12:51:06;6.40;41.30
1878;DHT22;939;51.426;6.972;2023-02-28T12:53:46;6.50;37.80
1878;DHT22;939;51.426;6.972;2023-02-28T12:56:19;6.40;38.60
1878;DHT22;939;51.426;6.972;2023-02-28T12:58:51;6.60;39.70
1878;DHT22;939;51.426;6.972;2023-02-28T13:01:40;6.70;38.30
1878;DHT22;939;51.426;6.972;2023-02-28T13:07:45;6.90;37.90
1878;DHT22;939;51.426;6.972;2023-02-28T13:10:19;6.80;40.10
1878;DHT22;939;51.426;6.972;2023-02-28T13:12:48;6.90;37.70
1878;DHT22;939;51.426;6.972;2023-02-28T13:15:18;6.70;36.30
1878;DHT22;939;51.426;6.972;2023-02-28T13:17:53;6.50;38.40
1878;DHT22;939;51.426;6.972;2023-02-28T13:20:23;6.70;38.20
1878;DHT22;939;51.426;6.972;2023-02-28T13:22:51;6.70;38.20
1878;DHT22;939;51.426;6.972;2023-02-28T13:34:37;6.80;42.80
1878;DHT22;939;51.426;6.972;2023-02-28T13:37:32;6.80;41.40
1878;DHT22;939;51.426;6.972;2023-02-28T13:40:28;7.10;42.00
1878;DHT22;939;51.426;6.972;2023-02-28T13:43:02;7.10;42.30
1878;DHT22;939;51.426;6.972;2023-02-28T13:45:30;7.20;41.20
1878;DHT22;939;51.426;6.972;2023-02-28T13:48:04;7.30;40.50
1878;DHT22;939;51.426;6.972;2023-02-28T13:50:35;7.10;39.90
1878;DHT22;939;51.426;6.972;2023-02-28T13:56:10;6.90;40.10
1878;DHT22;939;51.426;6.972;2023-02-28T13:58:53;6.80;40.80
1878;DHT22;939;51.426;6.972;2023-02-28T14:01:36;7.10;41.10
1878;DHT22;939;51.426;6.972;2023-02-28T14:04:23;8.50;38.40
1878;DHT22;939;51.426;6.972;2023-02-28T14:06:57;10.40;37.30
1878;DHT22;939;51.426;6.972;2023-02-28T14:09:27;11.80;31.40
1878;DHT22;939;51.426;6.972;2023-02-28T14:11:56;13.90;29.10
1878;DHT22;939;51.426;6.972;2023-02-28T14:14:53;15.10;26.80
1878;DHT22;939;51.426;6.972;2023-02-28T14:17:21;15.20;24.80
1878;DHT22;939;51.426;6.972;2023-02-28T14:19:48;16.10;23.60
1878;DHT22;939;51.426;6.972;2023-02-28T14:25:18;16.80;21.20
1878;DHT22;939;51.426;6.972;2023-02-28T14:27:52;17.40;20.10
1878;DHT22;939;51.426;6.972;2023-02-28T14:30:51;16.30;20.70
1878;DHT22;939;51.426;6.972;2023-02-28T14:33:25;16.30;19.60
1878;DHT22;939;51.426;6.972;2023-02-28T14:36:03;15.40;19.80
1878;DHT22;939;51.426;6.972;2023-02-28T14:38:36;14.70;20.80
1878;DHT22;939;51.426;6.972;2023-02-28T14:41:12;14.90;20.20
1878;DHT22;939;51.426;6.972;2023-02-28T14:43:49;16.30;19.20
1878;DHT22;939;51.426;6.972;2023-02-28T14:46:17;17.10;17.20
1878;DHT22;939;51.426;6.972;2023-02-28T14:48:45;17.70;17.10
1878;DHT22;939;51.426;6.972;2023-02-28T14:51:18;17.60;16.50
1878;DHT22;939;51.426;6.972;2023-02-28T14:53:50;16.60;17.60
1878;DHT22;939;51.426;6.972;2023-02-28T14:56:23;15.40;17.90
1878;DHT22;939;51.426;6.972;2023-02-28T14:58:55;14.90;18.70
1878;DHT22;939;51.426;6.972;2023-02-28T15:01:23;14.80;18.20
1878;DHT22;939;51.426;6.972;2023-02-28T15:03:58;14.30;19.40
1878;DHT22;939;51.426;6.972;2023-02-28T15:06:25;15.30;19.20
1878;DHT22;939;51.426;6.972;2023-02-28T15:11:48;15.80;19.10
1878;DHT22;939;51.426;6.972;2023-02-28T15:14:18;16.00;17.50
1878;DHT22;939;51.426;6.972;2023-02-28T15:16:48;15.80;18.30
1878;DHT22;939;51.426;6.972;2023-02-28T15:19:20;15.70;17.90
1878;DHT22;939;51.426;6.972;2023-02-28T15:21:51;14.90;17.40
1878;DHT22;939;51.426;6.972;2023-02-28T15:24:22;13.80;18.80
1878;DHT22;939;51.426;6.972;2023-02-28T15:26:57;13.30;20.60
1878;DHT22;939;51.426;6.972;2023-02-28T15:29:26;12.10;22.70
1878;DHT22;939;51.426;6.972;2023-02-28T15:31:56;11.80;21.90
1878;DHT22;939;51.426;6.972;2023-02-28T15:34:30;11.60;22.20
1878;DHT22;939;51.426;6.972;2023-02-28T15:36:59;11.40;22.30
1878;DHT22;939;51.426;6.972;2023-02-28T15:39:28;11.50;22.60
1878;DHT22;939;51.426;6.972;2023-02-28T15:42:12;11.70;23.20
1878;DHT22;939;51.426;6.972;2023-02-28T15:44:42;11.40;23.00
1878;DHT22;939;51.426;6.972;2023-02-28T15:47:17;11.10;23.10
1878;DHT22;939;51.426;6.972;2023-02-28T15:49:47;10.90;24.00
1878;DHT22;939;51.426;6.972;2023-02-28T15:52:17;10.80;24.40
1878;DHT22;939;51.426;6.972;2023-02-28T15:54:46;10.20;25.30
1878;DHT22;939;51.426;6.972;2023-02-28T15:57:18;9.90;26.40
1878;DHT22;939;51.426;6.972;2023-02-28T15:59:51;9.90;26.70
1878;DHT22;939;51.426;6.972;2023-02-28T16:02:20;9.90;26.30
1878;DHT22;939;51.426;6.972;2023-02-28T16:05:19;9.70;27.10
1878;DHT22;939;51.426;6.972;2023-02-28T16:07:50;9.60;26.80
1878;DHT22;939;51.426;6.972;2023-02-28T16:10:18;9.50;27.40
1878;DHT22;939;51.426;6.972;2023-02-28T16:12:46;9.10;29.50
1878;DHT22;939;51.426;6.972;2023-02-28T16:15:18;8.80;30.20
1878;DHT22;939;51.426;6.972;2023-02-28T16:17:46;8.60;30.20
1878;DHT22;939;51.426;6.972;2023-02-28T16:20:14;8.50;32.50
1878;DHT22;939;51.426;6.972;2023-02-28T16:22:42;8.30;31.60
1878;DHT22;939;51.426;6.972;2023-02-28T16:25:12;8.30;32.40
1878;DHT22;939;51.426;6.972;2023-02-28T16:27:39;8.20;32.80
1878;DHT22;939;51.426;6.972;2023-02-28T16:30:17;8.30;34.20
1878;DHT22;939;51.426;6.972;2023-02-28T16:32:45;7.90;34.30
1878;DHT22;939;51.426;6.972;2023-02-28T16:35:12;7.80;35.30
1878;DHT22;939;51.426;6.972;2023-02-28T16:37:40;7.60;37.60
1878;DHT22;939;51.426;6.972;2023-02-28T16:40:09;7.60;37.50
1878;DHT22;939;51.426;6.972;2023-02-28T16:42:40;7.60;37.80
1878;DHT22;939;51.426;6.972;2023-02-28T16:45:15;7.50;38.00
1878;DHT22;939;51.426;6.972;2023-02-28T16:47:43;7.50;38.50
1878;DHT22;939;51.426;6.972;2023-02-28T16:50:14;7.40;37.80
1878;DHT22;939;51.426;6.972;2023-02-28T16:52:41;7.10;39.30
1878;DHT22;939;51.426;6.972;2023-02-28T16:55:09;7.20;39.60
1878;DHT22;939;51.426;6.972;2023-02-28T16:57:36;7.10;40.60
1878;DHT22;939;51.426;6.972;2023-02-28T17:00:06;7.00;41.40
1878;DHT22;939;51.426;6.972;2023-02-28T17:02:35;7.00;41.30
1878;DHT22;939;51.426;6.972;2023-02-28T17:05:02;6.70;41.90
1878;DHT22;939;51.426;6.972;2023-02-28T17:07:30;6.80;41.10
1878;DHT22;939;51.426;6.972;2023-02-28T17:09:56;6.80;41.50
1878;DHT22;939;51.426;6.972;2023-02-28T17:12:23;6.80;40.20
1878;DHT22;939;51.426;6.972;2023-02-28T17:14:50;6.80;40.50
1878;DHT22;939;51.426;6.972;2023-02-28T17:17:18;6.80;41.90
1878;DHT22;939;51.426;6.972;2023-02-28T17:19:47;6.70;42.50
1878;DHT22;939;51.426;6.972;2023-02-28T17:22:14;6.70;42.40
1878;DHT22;939;51.426;6.972;2023-02-28T17:24:41;6.60;42.50
1878;DHT22;939;51.426;6.972;2023-02-28T17:27:11;6.50;43.90
1878;DHT22;939;51.426;6.972;2023-02-28T17:29:38;6.50;43.60
1878;DHT22;939;51.426;6.972;2023-02-28T17:32:05;6.50;43.70
1878;DHT22;939;51.426;6.972;2023-02-28T17:34:32;6.50;43.30